sensor_id;sensor_type;location;lat;lon;timestamp;temperature;humidity
72604;DHT22;60645;56.968;24.196;2023-08-06T00:01:49;18.50;95.30
72604;DHT22;60645;56.968;24.196;2023-08-06T00:04:17;18.40;95.30
72604;DHT22;60645;56.968;24.196;2023-08-06T00:06:44;18.50;95.50
72604;DHT22;60645;56.968;24.196;2023-08-06T00:09:11;18.50;95.80
72604;DHT22;60645;56.968;24.196;2023-08-06T00:11:38;18.40;95.90
72604;DHT22;60645;56.968;24.196;2023-08-06T00:14:05;18.50;95.70
72604;DHT22;60645;56.968;24.196;2023-08-06T00:16:32;18.50;95.70
72604;DHT22;60645;56.968;24.196;2023-08-06T00:18:59;18.60;95.60
72604;DHT22;60645;56.968;24.196;2023-08-06T00:21:25;18.50;95.80
72604;DHT22;60645;56.968;24.196;2023-08-06T00:23:52;18.50;96.10
72604;DHT22;60645;56.968;24.196;2023-08-06T00:26:19;18.40;96.30
72604;DHT22;60645;56.968;24.196;2023-08-06T00:28:46;18.40;96.30
72604;DHT22;60645;56.968;24.196;2023-08-06T00:31:13;18.40;96.60
72604;DHT22;60645;56.968;24.196;2023-08-06T00:33:40;18.30;96.70
72604;DHT22;60645;56.968;24.196;2023-08-06T00:36:07;18.40;96.50
72604;DHT22;60645;56.968;24.196;2023-08-06T00:38:34;18.30;96.70
72604;DHT22;60645;56.968;24.196;2023-08-06T00:41:01;18.30;96.70
72604;DHT22;60645;56.968;24.196;2023-08-06T00:43:28;18.40;96.50
72604;DHT22;60645;56.968;24.196;2023-08-06T00:45:55;18.40;96.70
72604;DHT22;60645;56.968;24.196;2023-08-06T00:48:22;18.30;96.80
72604;DHT22;60645;56.968;24.196;2023-08-06T00:50:49;18.30;96.90
72604;DHT22;60645;56.968;24.196;2023-08-06T00:53:16;18.30;97.00
72604;DHT22;60645;56.968;24.196;2023-08-06T00:55:44;18.30;97.10
72604;DHT22;60645;56.968;24.196;2023-08-06T00:58:12;18.30;97.30
72604;DHT22;60645;56.968;24.196;2023-08-06T01:00:40;18.30;97.10
72604;DHT22;60645;56.968;24.196;2023-08-06T01:03:07;18.20;97.20
72604;DHT22;60645;56.968;24.196;2023-08-06T01:05:35;18.30;97.10
72604;DHT22;60645;56.968;24.196;2023-08-06T01:11:13;18.40;96.80
72604;DHT22;60645;56.968;24.196;2023-08-06T01:13:50;18.40;96.80
72604;DHT22;60645;56.968;24.196;2023-08-06T01:16:20;18.40;97.20
72604;DHT22;60645;56.968;24.196;2023-08-06T01:18:48;18.30;97.30
72604;DHT22;60645;56.968;24.196;2023-08-06T01:21:17;18.40;97.30
72604;DHT22;60645;56.968;24.196;2023-08-06T01:23:45;18.40;97.30
72604;DHT22;60645;56.968;24.196;2023-08-06T01:29:02;18.30;97.40
72604;DHT22;60645;56.968;24.196;2023-08-06T01:31:38;18.30;97.50
72604;DHT22;60645;56.968;24.196;2023-08-06T01:34:09;18.40;97.40
72604;DHT22;60645;56.968;24.196;2023-08-06T01:36:36;18.30;97.50
72604;DHT22;60645;56.968;24.196;2023-08-06T01:39:05;18.30;97.80
72604;DHT22;60645;56.968;24.196;2023-08-06T01:41:32;18.40;97.70
72604;DHT22;60645;56.968;24.196;2023-08-06T01:43:59;18.40;97.50
72604;DHT22;60645;56.968;24.196;2023-08-06T01:46:25;18.50;97.60
72604;DHT22;60645;56.968;24.196;2023-08-06T01:48:53;18.40;97.60
72604;DHT22;60645;56.968;24.196;2023-08-06T01:51:19;18.50;97.70
72604;DHT22;60645;56.968;24.196;2023-08-06T01:53:46;18.50;97.40
72604;DHT22;60645;56.968;24.196;2023-08-06T01:56:13;18.50;97.30
72604;DHT22;60645;56.968;24.196;2023-08-06T01:58:40;18.50;97.50
72604;DHT22;60645;56.968;24.196;2023-08-06T02:01:07;18.50;97.60
72604;DHT22;60645;56.968;24.196;2023-08-06T02:03:34;18.50;97.60
72604;DHT22;60645;56.968;24.196;2023-08-06T02:06:01;18.50;97.60
72604;DHT22;60645;56.968;24.196;2023-08-06T02:08:28;18.50;97.80
72604;DHT22;60645;56.968;24.196;2023-08-06T02:10:55;18.50;97.60
72604;DHT22;60645;56.968;24.196;2023-08-06T02:13:22;18.50;97.70
72604;DHT22;60645;56.968;24.196;2023-08-06T02:15:49;18.50;97.70
72604;DHT22;60645;56.968;24.196;2023-08-06T02:18:16;18.50;97.80
72604;DHT22;60645;56.968;24.196;2023-08-06T02:20:43;18.50;97.60
72604;DHT22;60645;56.968;24.196;2023-08-06T02:23:10;18.50;97.60
72604;DHT22;60645;56.968;24.196;2023-08-06T02:25:37;18.50;97.60
72604;DHT22;60645;56.968;24.196;2023-08-06T02:28:04;18.50;97.70
72604;DHT22;60645;56.968;24.196;2023-08-06T02:30:30;18.60;97.80
72604;DHT22;60645;56.968;24.196;2023-08-06T02:32:58;18.60;97.60
72604;DHT22;60645;56.968;24.196;2023-08-06T02:35:24;18.70;97.40
72604;DHT22;60645;56.968;24.196;2023-08-06T02:37:51;18.60;97.60
72604;DHT22;60645;56.968;24.196;2023-08-06T02:40:18;18.60;97.20
72604;DHT22;60645;56.968;24.196;2023-08-06T02:42:45;18.80;97.20
72604;DHT22;60645;56.968;24.196;2023-08-06T02:45:12;18.70;97.60
72604;DHT22;60645;56.968;24.196;2023-08-06T02:47:39;18.60;97.60
72604;DHT22;60645;56.968;24.196;2023-08-06T02:50:06;18.60;97.70
72604;DHT22;60645;56.968;24.196;2023-08-06T02:52:34;18.70;97.90
72604;DHT22;60645;56.968;24.196;2023-08-06T02:55:01;18.60;98.10
72604;DHT22;60645;56.968;24.196;2023-08-06T02:57:28;18.60;97.90
72604;DHT22;60645;56.968;24.196;2023-08-06T02:59:55;18.60;98.00
72604;DHT22;60645;56.968;24.196;2023-08-06T03:02:21;18.60;97.90
72604;DHT22;60645;56.968;24.196;2023-08-06T03:04:48;18.70;97.80
72604;DHT22;60645;56.968;24.196;2023-08-06T03:07:16;18.70;97.60
72604;DHT22;60645;56.968;24.196;2023-08-06T03:09:43;18.70;97.70
72604;DHT22;60645;56.968;24.196;2023-08-06T03:12:10;18.70;97.90
72604;DHT22;60645;56.968;24.196;2023-08-06T03:14:37;18.60;98.10
72604;DHT22;60645;56.968;24.196;2023-08-06T03:17:04;18.70;97.90
72604;DHT22;60645;56.968;24.196;2023-08-06T03:19:31;18.70;98.10
72604;DHT22;60645;56.968;24.196;2023-08-06T03:21:58;18.70;97.80
72604;DHT22;60645;56.968;24.196;2023-08-06T03:24:25;18.80;97.60
72604;DHT22;60645;56.968;24.196;2023-08-06T03:26:52;18.70;97.70
72604;DHT22;60645;56.968;24.196;2023-08-06T03:29:19;18.90;97.70
72604;DHT22;60645;56.968;24.196;2023-08-06T03:31:48;18.90;97.90
72604;DHT22;60645;56.968;24.196;2023-08-06T03:34:15;18.90;97.40
72604;DHT22;60645;56.968;24.196;2023-08-06T03:36:41;18.90;97.30
72604;DHT22;60645;56.968;24.196;2023-08-06T03:39:08;18.90;97.20
72604;DHT22;60645;56.968;24.196;2023-08-06T03:41:35;18.90;97.40
72604;DHT22;60645;56.968;24.196;2023-08-06T03:44:02;18.90;97.40
72604;DHT22;60645;56.968;24.196;2023-08-06T03:46:30;19.00;97.40
72604;DHT22;60645;56.968;24.196;2023-08-06T03:49:01;18.90;97.20
72604;DHT22;60645;56.968;24.196;2023-08-06T03:51:28;18.90;97.50
72604;DHT22;60645;56.968;24.196;2023-08-06T03:53:54;18.90;97.30
72604;DHT22;60645;56.968;24.196;2023-08-06T03:56:21;18.90;97.60
72604;DHT22;60645;56.968;24.196;2023-08-06T03:58:48;18.90;97.70
72604;DHT22;60645;56.968;24.196;2023-08-06T04:01:16;18.90;98.00
72604;DHT22;60645;56.968;24.196;2023-08-06T04:03:43;18.90;97.90
72604;DHT22;60645;56.968;24.196;2023-08-06T04:06:10;19.10;97.60
72604;DHT22;60645;56.968;24.196;2023-08-06T04:08:37;19.00;97.40
72604;DHT22;60645;56.968;24.196;2023-08-06T04:11:04;19.00;97.50
72604;DHT22;60645;56.968;24.196;2023-08-06T04:13:31;19.20;97.50
72604;DHT22;60645;56.968;24.196;2023-08-06T04:16:04;19.20;97.20
72604;DHT22;60645;56.968;24.196;2023-08-06T04:18:31;19.20;97.20
72604;DHT22;60645;56.968;24.196;2023-08-06T04:20:58;19.20;97.30
72604;DHT22;60645;56.968;24.196;2023-08-06T04:23:25;19.20;97.00
72604;DHT22;60645;56.968;24.196;2023-08-06T04:25:52;19.20;97.00
72604;DHT22;60645;56.968;24.196;2023-08-06T04:28:19;19.20;97.00
72604;DHT22;60645;56.968;24.196;2023-08-06T04:30:46;19.30;97.10
72604;DHT22;60645;56.968;24.196;2023-08-06T04:33:13;19.20;96.90
72604;DHT22;60645;56.968;24.196;2023-08-06T04:35:40;19.20;97.20
72604;DHT22;60645;56.968;24.196;2023-08-06T04:38:07;19.30;96.90
72604;DHT22;60645;56.968;24.196;2023-08-06T04:40:37;19.50;96.20
72604;DHT22;60645;56.968;24.196;2023-08-06T04:43:04;19.60;95.90
72604;DHT22;60645;56.968;24.196;2023-08-06T04:45:30;19.80;95.20
72604;DHT22;60645;56.968;24.196;2023-08-06T04:47:57;19.80;95.20
72604;DHT22;60645;56.968;24.196;2023-08-06T04:50:24;19.90;95.00
72604;DHT22;60645;56.968;24.196;2023-08-06T04:52:51;19.80;94.90
72604;DHT22;60645;56.968;24.196;2023-08-06T04:55:18;19.90;94.80
72604;DHT22;60645;56.968;24.196;2023-08-06T04:57:47;19.70;95.60
72604;DHT22;60645;56.968;24.196;2023-08-06T05:00:14;19.70;95.70
72604;DHT22;60645;56.968;24.196;2023-08-06T05:02:41;19.70;96.00
72604;DHT22;60645;56.968;24.196;2023-08-06T05:05:08;19.60;96.40
72604;DHT22;60645;56.968;24.196;2023-08-06T05:07:35;19.50;96.60
72604;DHT22;60645;56.968;24.196;2023-08-06T05:10:02;19.50;97.10
72604;DHT22;60645;56.968;24.196;2023-08-06T05:12:31;19.40;97.50
72604;DHT22;60645;56.968;24.196;2023-08-06T05:14:58;19.50;97.60
72604;DHT22;60645;56.968;24.196;2023-08-06T05:17:25;19.50;97.40
72604;DHT22;60645;56.968;24.196;2023-08-06T05:19:52;19.50;97.70
72604;DHT22;60645;56.968;24.196;2023-08-06T05:22:18;19.60;98.00
72604;DHT22;60645;56.968;24.196;2023-08-06T05:24:45;19.60;97.50
72604;DHT22;60645;56.968;24.196;2023-08-06T05:27:12;19.60;97.30
72604;DHT22;60645;56.968;24.196;2023-08-06T05:29:39;19.70;97.20
72604;DHT22;60645;56.968;24.196;2023-08-06T05:32:07;19.70;97.30
72604;DHT22;60645;56.968;24.196;2023-08-06T05:34:34;19.70;97.30
72604;DHT22;60645;56.968;24.196;2023-08-06T05:37:00;19.70;97.30
72604;DHT22;60645;56.968;24.196;2023-08-06T05:39:27;20.00;96.90
72604;DHT22;60645;56.968;24.196;2023-08-06T05:41:54;20.10;96.10
72604;DHT22;60645;56.968;24.196;2023-08-06T05:46:51;21.10;93.70
72604;DHT22;60645;56.968;24.196;2023-08-06T05:49:20;21.40;92.00
72604;DHT22;60645;56.968;24.196;2023-08-06T05:51:47;21.80;91.60
72604;DHT22;60645;56.968;24.196;2023-08-06T05:56:41;22.70;88.10
72604;DHT22;60645;56.968;24.196;2023-08-06T05:59:08;22.90;87.30
72604;DHT22;60645;56.968;24.196;2023-08-06T06:01:35;22.80;87.90
72604;DHT22;60645;56.968;24.196;2023-08-06T06:04:02;22.50;88.00
72604;DHT22;60645;56.968;24.196;2023-08-06T06:06:29;22.20;88.60
72604;DHT22;60645;56.968;24.196;2023-08-06T06:08:56;22.00;89.90
72604;DHT22;60645;56.968;24.196;2023-08-06T06:11:23;22.00;90.60
72604;DHT22;60645;56.968;24.196;2023-08-06T06:13:51;22.30;89.40
72604;DHT22;60645;56.968;24.196;2023-08-06T06:16:18;22.20;89.30
72604;DHT22;60645;56.968;24.196;2023-08-06T06:18:45;22.40;89.00
72604;DHT22;60645;56.968;24.196;2023-08-06T06:21:12;22.30;89.60
72604;DHT22;60645;56.968;24.196;2023-08-06T06:23:39;22.30;89.40
72604;DHT22;60645;56.968;24.196;2023-08-06T06:26:06;22.30;89.60
72604;DHT22;60645;56.968;24.196;2023-08-06T06:28:33;22.50;89.50
72604;DHT22;60645;56.968;24.196;2023-08-06T06:31:00;22.30;89.80
72604;DHT22;60645;56.968;24.196;2023-08-06T06:33:28;22.30;90.20
72604;DHT22;60645;56.968;24.196;2023-08-06T06:35:55;22.30;90.30
72604;DHT22;60645;56.968;24.196;2023-08-06T06:38:21;22.30;90.00
72604;DHT22;60645;56.968;24.196;2023-08-06T06:40:57;22.40;90.40
72604;DHT22;60645;56.968;24.196;2023-08-06T06:43:25;22.40;89.70
72604;DHT22;60645;56.968;24.196;2023-08-06T06:45:53;22.40;90.30
72604;DHT22;60645;56.968;24.196;2023-08-06T06:48:20;22.70;89.80
72604;DHT22;60645;56.968;24.196;2023-08-06T06:50:48;22.70;89.30
72604;DHT22;60645;56.968;24.196;2023-08-06T06:53:15;22.70;89.30
72604;DHT22;60645;56.968;24.196;2023-08-06T06:55:42;22.70;89.30
72604;DHT22;60645;56.968;24.196;2023-08-06T06:58:09;22.50;90.10
72604;DHT22;60645;56.968;24.196;2023-08-06T07:00:39;22.70;89.70
72604;DHT22;60645;56.968;24.196;2023-08-06T07:03:06;22.90;89.00
72604;DHT22;60645;56.968;24.196;2023-08-06T07:05:33;23.00;88.80
72604;DHT22;60645;56.968;24.196;2023-08-06T07:08:00;23.00;88.80
72604;DHT22;60645;56.968;24.196;2023-08-06T07:12:54;23.40;87.50
72604;DHT22;60645;56.968;24.196;2023-08-06T07:20:16;24.40;84.40
72604;DHT22;60645;56.968;24.196;2023-08-06T07:22:44;24.80;83.70
72604;DHT22;60645;56.968;24.196;2023-08-06T07:25:11;25.90;81.10
72604;DHT22;60645;56.968;24.196;2023-08-06T07:27:38;26.60;79.00
72604;DHT22;60645;56.968;24.196;2023-08-06T07:30:06;26.90;77.50
72604;DHT22;60645;56.968;24.196;2023-08-06T07:32:33;26.30;78.60
72604;DHT22;60645;56.968;24.196;2023-08-06T07:35:00;26.40;78.30
72604;DHT22;60645;56.968;24.196;2023-08-06T07:37:27;26.90;77.20
72604;DHT22;60645;56.968;24.196;2023-08-06T07:39:55;27.00;76.70
72604;DHT22;60645;56.968;24.196;2023-08-06T07:42:23;27.10;77.20
72604;DHT22;60645;56.968;24.196;2023-08-06T07:44:52;26.90;76.70
72604;DHT22;60645;56.968;24.196;2023-08-06T07:47:19;27.20;76.20
72604;DHT22;60645;56.968;24.196;2023-08-06T07:49:46;27.80;75.60
72604;DHT22;60645;56.968;24.196;2023-08-06T07:52:13;28.70;71.50
72604;DHT22;60645;56.968;24.196;2023-08-06T07:54:40;29.20;71.70
72604;DHT22;60645;56.968;24.196;2023-08-06T07:57:07;30.00;68.80
72604;DHT22;60645;56.968;24.196;2023-08-06T08:02:01;30.00;68.20
72604;DHT22;60645;56.968;24.196;2023-08-06T08:04:28;29.60;69.00
72604;DHT22;60645;56.968;24.196;2023-08-06T08:06:55;30.00;67.10
72604;DHT22;60645;56.968;24.196;2023-08-06T08:09:22;30.00;67.70
72604;DHT22;60645;56.968;24.196;2023-08-06T08:14:17;29.60;68.00
72604;DHT22;60645;56.968;24.196;2023-08-06T08:16:44;29.80;67.50
72604;DHT22;60645;56.968;24.196;2023-08-06T08:19:11;29.50;69.10
72604;DHT22;60645;56.968;24.196;2023-08-06T08:21:38;30.40;66.90
72604;DHT22;60645;56.968;24.196;2023-08-06T08:24:05;30.70;66.80
72604;DHT22;60645;56.968;24.196;2023-08-06T08:26:32;31.00;65.90
72604;DHT22;60645;56.968;24.196;2023-08-06T08:31:26;31.30;65.10
72604;DHT22;60645;56.968;24.196;2023-08-06T08:33:55;31.20;64.80
72604;DHT22;60645;56.968;24.196;2023-08-06T08:38:53;31.20;64.60
72604;DHT22;60645;56.968;24.196;2023-08-06T08:41:20;31.50;64.10
72604;DHT22;60645;56.968;24.196;2023-08-06T08:43:50;32.00;63.50
72604;DHT22;60645;56.968;24.196;2023-08-06T08:46:20;32.30;62.00
72604;DHT22;60645;56.968;24.196;2023-08-06T08:48:47;32.80;61.80
72604;DHT22;60645;56.968;24.196;2023-08-06T08:51:15;32.60;61.00
72604;DHT22;60645;56.968;24.196;2023-08-06T08:53:44;32.80;60.50
72604;DHT22;60645;56.968;24.196;2023-08-06T08:56:13;33.40;59.90
72604;DHT22;60645;56.968;24.196;2023-08-06T08:58:41;34.10;58.90
72604;DHT22;60645;56.968;24.196;2023-08-06T09:01:08;34.50;56.60
72604;DHT22;60645;56.968;24.196;2023-08-06T09:03:36;34.60;56.60
72604;DHT22;60645;56.968;24.196;2023-08-06T09:08:36;33.90;58.00
72604;DHT22;60645;56.968;24.196;2023-08-06T09:11:05;33.60;58.00
72604;DHT22;60645;56.968;24.196;2023-08-06T09:13:37;33.80;57.60
72604;DHT22;60645;56.968;24.196;2023-08-06T09:16:04;33.50;58.80
72604;DHT22;60645;56.968;24.196;2023-08-06T09:18:33;33.80;57.90
72604;DHT22;60645;56.968;24.196;2023-08-06T09:23:29;33.60;58.30
72604;DHT22;60645;56.968;24.196;2023-08-06T09:25:58;34.00;57.10
72604;DHT22;60645;56.968;24.196;2023-08-06T09:28:37;33.80;58.40
72604;DHT22;60645;56.968;24.196;2023-08-06T09:31:10;34.40;57.00
72604;DHT22;60645;56.968;24.196;2023-08-06T09:33:37;34.70;56.50
72604;DHT22;60645;56.968;24.196;2023-08-06T09:36:09;35.00;55.40
72604;DHT22;60645;56.968;24.196;2023-08-06T09:38:40;34.90;55.60
72604;DHT22;60645;56.968;24.196;2023-08-06T09:43:45;35.00;55.00
72604;DHT22;60645;56.968;24.196;2023-08-06T09:46:13;34.40;56.80
72604;DHT22;60645;56.968;24.196;2023-08-06T09:48:40;34.60;56.70
72604;DHT22;60645;56.968;24.196;2023-08-06T09:51:08;34.10;56.90
72604;DHT22;60645;56.968;24.196;2023-08-06T09:53:37;34.90;56.10
72604;DHT22;60645;56.968;24.196;2023-08-06T09:56:05;34.40;56.40
72604;DHT22;60645;56.968;24.196;2023-08-06T09:58:32;34.50;55.80
72604;DHT22;60645;56.968;24.196;2023-08-06T10:01:02;34.80;56.10
72604;DHT22;60645;56.968;24.196;2023-08-06T10:03:30;35.20;55.30
72604;DHT22;60645;56.968;24.196;2023-08-06T10:05:59;34.60;56.30
72604;DHT22;60645;56.968;24.196;2023-08-06T10:08:28;34.20;57.20
72604;DHT22;60645;56.968;24.196;2023-08-06T10:10:55;34.70;56.40
72604;DHT22;60645;56.968;24.196;2023-08-06T10:13:24;34.60;55.50
72604;DHT22;60645;56.968;24.196;2023-08-06T10:15:52;34.50;55.80
72604;DHT22;60645;56.968;24.196;2023-08-06T10:18:19;34.50;55.80
72604;DHT22;60645;56.968;24.196;2023-08-06T10:20:49;35.20;55.60
72604;DHT22;60645;56.968;24.196;2023-08-06T10:23:16;36.00;53.20
72604;DHT22;60645;56.968;24.196;2023-08-06T10:25:43;35.90;53.90
72604;DHT22;60645;56.968;24.196;2023-08-06T10:28:19;35.80;54.20
72604;DHT22;60645;56.968;24.196;2023-08-06T10:33:19;36.50;51.60
72604;DHT22;60645;56.968;24.196;2023-08-06T10:35:48;35.90;53.30
72604;DHT22;60645;56.968;24.196;2023-08-06T10:38:25;35.80;53.60
72604;DHT22;60645;56.968;24.196;2023-08-06T10:43:27;36.50;52.30
72604;DHT22;60645;56.968;24.196;2023-08-06T10:45:55;36.80;51.40
72604;DHT22;60645;56.968;24.196;2023-08-06T10:48:49;36.90;52.60
72604;DHT22;60645;56.968;24.196;2023-08-06T10:51:15;37.10;51.00
72604;DHT22;60645;56.968;24.196;2023-08-06T10:53:43;37.20;50.90
72604;DHT22;60645;56.968;24.196;2023-08-06T10:56:14;37.60;49.50
72604;DHT22;60645;56.968;24.196;2023-08-06T10:58:42;36.40;50.90
72604;DHT22;60645;56.968;24.196;2023-08-06T11:01:10;35.20;53.60
72604;DHT22;60645;56.968;24.196;2023-08-06T11:03:37;35.20;54.00
72604;DHT22;60645;56.968;24.196;2023-08-06T11:06:07;35.00;53.60
72604;DHT22;60645;56.968;24.196;2023-08-06T11:11:12;36.10;52.10
72604;DHT22;60645;56.968;24.196;2023-08-06T11:13:40;36.40;50.90
72604;DHT22;60645;56.968;24.196;2023-08-06T11:16:07;36.30;50.60
72604;DHT22;60645;56.968;24.196;2023-08-06T11:18:34;35.50;52.00
72604;DHT22;60645;56.968;24.196;2023-08-06T11:21:01;36.00;50.90
72604;DHT22;60645;56.968;24.196;2023-08-06T11:23:29;36.00;50.90
72604;DHT22;60645;56.968;24.196;2023-08-06T11:25:56;35.50;51.50
72604;DHT22;60645;56.968;24.196;2023-08-06T11:28:23;36.20;50.50
72604;DHT22;60645;56.968;24.196;2023-08-06T11:35:44;36.30;49.90
72604;DHT22;60645;56.968;24.196;2023-08-06T11:38:13;36.10;50.80
72604;DHT22;60645;56.968;24.196;2023-08-06T11:43:09;38.00;48.30
72604;DHT22;60645;56.968;24.196;2023-08-06T11:55:27;34.50;53.40
72604;DHT22;60645;56.968;24.196;2023-08-06T11:57:57;34.70;53.50
72604;DHT22;60645;56.968;24.196;2023-08-06T12:00:25;34.70;54.20
72604;DHT22;60645;56.968;24.196;2023-08-06T12:02:52;34.20;54.80
72604;DHT22;60645;56.968;24.196;2023-08-06T12:05:20;34.30;53.70
72604;DHT22;60645;56.968;24.196;2023-08-06T12:07:48;34.00;55.20
72604;DHT22;60645;56.968;24.196;2023-08-06T12:12:43;36.30;49.80
72604;DHT22;60645;56.968;24.196;2023-08-06T12:15:10;35.40;51.90
72604;DHT22;60645;56.968;24.196;2023-08-06T12:17:37;34.50;53.20
72604;DHT22;60645;56.968;24.196;2023-08-06T12:22:33;34.80;52.70
72604;DHT22;60645;56.968;24.196;2023-08-06T12:25:08;35.10;52.00
72604;DHT22;60645;56.968;24.196;2023-08-06T12:27:36;35.40;51.50
72604;DHT22;60645;56.968;24.196;2023-08-06T12:30:04;36.30;49.20
72604;DHT22;60645;56.968;24.196;2023-08-06T12:32:31;36.90;48.20
72604;DHT22;60645;56.968;24.196;2023-08-06T12:34:58;36.50;48.90
72604;DHT22;60645;56.968;24.196;2023-08-06T12:37:25;36.50;49.20
72604;DHT22;60645;56.968;24.196;2023-08-06T12:39:52;36.00;50.10
72604;DHT22;60645;56.968;24.196;2023-08-06T12:42:19;35.50;50.40
72604;DHT22;60645;56.968;24.196;2023-08-06T12:47:16;36.30;49.90
72604;DHT22;60645;56.968;24.196;2023-08-06T12:49:44;36.50;49.40
72604;DHT22;60645;56.968;24.196;2023-08-06T12:52:11;36.60;48.80
72604;DHT22;60645;56.968;24.196;2023-08-06T12:54:39;37.20;47.90
72604;DHT22;60645;56.968;24.196;2023-08-06T12:57:06;37.10;48.60
72604;DHT22;60645;56.968;24.196;2023-08-06T12:59:34;35.50;49.60
72604;DHT22;60645;56.968;24.196;2023-08-06T13:02:04;34.70;51.10
72604;DHT22;60645;56.968;24.196;2023-08-06T13:07:01;34.80;51.50
72604;DHT22;60645;56.968;24.196;2023-08-06T13:09:27;35.60;50.10
72604;DHT22;60645;56.968;24.196;2023-08-06T13:11:58;34.70;51.00
72604;DHT22;60645;56.968;24.196;2023-08-06T13:14:26;34.20;52.60
72604;DHT22;60645;56.968;24.196;2023-08-06T13:16:55;34.20;51.90
72604;DHT22;60645;56.968;24.196;2023-08-06T13:19:25;32.60;56.20
72604;DHT22;60645;56.968;24.196;2023-08-06T13:22:02;32.60;56.10
72604;DHT22;60645;56.968;24.196;2023-08-06T13:24:30;32.40;56.80
72604;DHT22;60645;56.968;24.196;2023-08-06T13:26:57;32.10;57.30
72604;DHT22;60645;56.968;24.196;2023-08-06T13:29:25;32.00;57.60
72604;DHT22;60645;56.968;24.196;2023-08-06T13:31:52;31.80;57.70
72604;DHT22;60645;56.968;24.196;2023-08-06T13:34:19;31.60;58.30
72604;DHT22;60645;56.968;24.196;2023-08-06T13:36:46;31.60;58.20
72604;DHT22;60645;56.968;24.196;2023-08-06T13:39:13;31.50;58.80
72604;DHT22;60645;56.968;24.196;2023-08-06T13:41:43;31.70;58.00
72604;DHT22;60645;56.968;24.196;2023-08-06T13:44:10;31.70;57.90
72604;DHT22;60645;56.968;24.196;2023-08-06T13:46:37;31.70;57.50
72604;DHT22;60645;56.968;24.196;2023-08-06T13:49:04;31.60;57.90
72604;DHT22;60645;56.968;24.196;2023-08-06T13:51:31;31.60;58.50
72604;DHT22;60645;56.968;24.196;2023-08-06T13:54:01;31.60;58.50
72604;DHT22;60645;56.968;24.196;2023-08-06T13:56:28;31.50;59.20
72604;DHT22;60645;56.968;24.196;2023-08-06T13:58:59;31.50;58.20
72604;DHT22;60645;56.968;24.196;2023-08-06T14:01:25;31.50;58.20
72604;DHT22;60645;56.968;24.196;2023-08-06T14:04:13;31.60;58.20
72604;DHT22;60645;56.968;24.196;2023-08-06T14:06:40;31.60;57.20
72604;DHT22;60645;56.968;24.196;2023-08-06T14:09:07;31.60;58.00
72604;DHT22;60645;56.968;24.196;2023-08-06T14:11:34;31.50;57.30
72604;DHT22;60645;56.968;24.196;2023-08-06T14:14:01;31.60;56.80
72604;DHT22;60645;56.968;24.196;2023-08-06T14:16:30;31.70;56.90
72604;DHT22;60645;56.968;24.196;2023-08-06T14:18:57;31.80;57.00
72604;DHT22;60645;56.968;24.196;2023-08-06T14:21:23;31.80;57.00
72604;DHT22;60645;56.968;24.196;2023-08-06T14:23:51;31.60;57.30
72604;DHT22;60645;56.968;24.196;2023-08-06T14:26:17;31.70;57.40
72604;DHT22;60645;56.968;24.196;2023-08-06T14:31:12;31.70;57.30
72604;DHT22;60645;56.968;24.196;2023-08-06T14:33:39;31.50;57.30
72604;DHT22;60645;56.968;24.196;2023-08-06T14:36:06;31.50;57.80
72604;DHT22;60645;56.968;24.196;2023-08-06T14:38:33;31.50;57.60
72604;DHT22;60645;56.968;24.196;2023-08-06T14:41:08;31.50;57.60
72604;DHT22;60645;56.968;24.196;2023-08-06T14:43:35;31.50;58.00
72604;DHT22;60645;56.968;24.196;2023-08-06T14:46:02;31.50;57.70
72604;DHT22;60645;56.968;24.196;2023-08-06T14:48:30;31.50;56.40
72604;DHT22;60645;56.968;24.196;2023-08-06T14:50:57;31.40;56.70
72604;DHT22;60645;56.968;24.196;2023-08-06T14:53:24;31.40;57.30
72604;DHT22;60645;56.968;24.196;2023-08-06T14:55:51;31.40;57.60
72604;DHT22;60645;56.968;24.196;2023-08-06T14:58:19;31.60;57.10
72604;DHT22;60645;56.968;24.196;2023-08-06T15:00:46;31.60;56.80
72604;DHT22;60645;56.968;24.196;2023-08-06T15:03:13;31.40;57.20
72604;DHT22;60645;56.968;24.196;2023-08-06T15:05:43;31.30;57.50
72604;DHT22;60645;56.968;24.196;2023-08-06T15:08:11;31.10;57.90
72604;DHT22;60645;56.968;24.196;2023-08-06T15:10:38;31.10;57.50
72604;DHT22;60645;56.968;24.196;2023-08-06T15:13:05;31.10;56.90
72604;DHT22;60645;56.968;24.196;2023-08-06T15:15:33;31.10;57.00
72604;DHT22;60645;56.968;24.196;2023-08-06T15:18:00;31.30;57.30
72604;DHT22;60645;56.968;24.196;2023-08-06T15:20:27;31.30;57.30
72604;DHT22;60645;56.968;24.196;2023-08-06T15:22:54;31.20;57.20
72604;DHT22;60645;56.968;24.196;2023-08-06T15:25:24;31.20;57.30
72604;DHT22;60645;56.968;24.196;2023-08-06T15:27:51;31.20;57.10
72604;DHT22;60645;56.968;24.196;2023-08-06T15:30:18;31.20;57.50
72604;DHT22;60645;56.968;24.196;2023-08-06T15:32:49;31.30;57.60
72604;DHT22;60645;56.968;24.196;2023-08-06T15:35:16;31.20;58.00
72604;DHT22;60645;56.968;24.196;2023-08-06T15:37:43;31.20;57.40
72604;DHT22;60645;56.968;24.196;2023-08-06T15:40:10;31.30;57.40
72604;DHT22;60645;56.968;24.196;2023-08-06T15:42:37;31.20;57.20
72604;DHT22;60645;56.968;24.196;2023-08-06T15:45:04;31.10;57.40
72604;DHT22;60645;56.968;24.196;2023-08-06T15:47:31;31.10;57.80
72604;DHT22;60645;56.968;24.196;2023-08-06T15:49:58;31.00;57.60
72604;DHT22;60645;56.968;24.196;2023-08-06T15:52:26;31.00;58.10
72604;DHT22;60645;56.968;24.196;2023-08-06T15:54:52;30.90;58.40
72604;DHT22;60645;56.968;24.196;2023-08-06T15:57:19;31.00;58.60
72604;DHT22;60645;56.968;24.196;2023-08-06T15:59:46;31.00;58.30
72604;DHT22;60645;56.968;24.196;2023-08-06T16:02:13;30.90;58.30
72604;DHT22;60645;56.968;24.196;2023-08-06T16:04:42;31.00;59.50
72604;DHT22;60645;56.968;24.196;2023-08-06T16:07:09;30.90;59.40
72604;DHT22;60645;56.968;24.196;2023-08-06T16:09:35;30.80;59.00
72604;DHT22;60645;56.968;24.196;2023-08-06T16:12:03;30.90;59.30
72604;DHT22;60645;56.968;24.196;2023-08-06T16:14:30;30.90;59.20
72604;DHT22;60645;56.968;24.196;2023-08-06T16:16:57;30.80;59.70
72604;DHT22;60645;56.968;24.196;2023-08-06T16:19:24;30.70;59.40
72604;DHT22;60645;56.968;24.196;2023-08-06T16:21:51;30.80;59.40
72604;DHT22;60645;56.968;24.196;2023-08-06T16:24:18;30.60;58.90
72604;DHT22;60645;56.968;24.196;2023-08-06T16:26:44;30.60;58.90
72604;DHT22;60645;56.968;24.196;2023-08-06T16:29:11;30.50;59.60
72604;DHT22;60645;56.968;24.196;2023-08-06T16:31:38;30.70;59.30